Time;durP1;ratioP1;P1;durP2;ratioP2;P2;SDS_P1;SDS_P2;PMS_P1;PMS_P2;Temp;Humidity;BMP_temperature;BMP_pressure;BME280_temperature;BME280_humidity;BME280_pressure;Samples;Min_cycle;Max_cycle;Signal;HPM_P1;HPM_P2
2022/03/09 00:00:29;;;;;;;45.13;11.82;;;;;;;0.03;54.59;96785.13;5089145;28;20055;-78
2022/03/09 00:02:56;;;;;;;43.50;12.50;;;;;;;0.01;55.01;96789.91;5089899;28;20048;-77
2022/03/09 00:05:23;;;;;;;49.78;12.20;;;;;;;-0.02;55.36;96793.06;5090259;28;20418;-77
2022/03/09 00:07:49;;;;;;;51.38;13.25;;;;;;;-0.06;55.62;96790.03;5090648;28;20048;-79
2022/03/09 00:10:16;;;;;;;51.75;12.60;;;;;;;-0.10;56.05;96790.78;5090749;28;20044;-78
2022/03/09 00:12:43;;;;;;;40.58;11.90;;;;;;;-0.14;56.24;96786.97;5090831;28;20044;-78
2022/03/09 00:15:11;;;;;;;61.25;13.48;;;;;;;-0.17;56.24;96790.91;5090059;28;20495;-80
2022/03/09 00:17:38;;;;;;;36.17;11.50;;;;;;;-0.18;55.46;96799.19;5088952;28;20052;-79
2022/03/09 00:20:07;;;;;;;55.55;12.27;;;;;;;-0.21;54.98;96791.63;5089667;28;20048;-80
2022/03/09 00:22:33;;;;;;;39.80;10.80;;;;;;;-0.24;55.00;96800.16;5090269;28;20044;-80
2022/03/09 00:25:00;;;;;;;48.88;12.82;;;;;;;-0.29;55.02;96793.63;5091509;28;20055;-78
2022/03/09 00:27:26;;;;;;;50.80;12.63;;;;;;;-0.32;55.10;96791.41;5092230;28;20055;-79
2022/03/09 00:29:53;;;;;;;44.05;12.13;;;;;;;-0.34;55.44;96796.22;5092875;28;20058;-79
2022/03/09 00:32:19;;;;;;;64.93;13.38;;;;;;;-0.37;55.49;96791.31;5093572;28;20047;-79
2022/03/09 00:34:47;;;;;;;46.47;11.80;;;;;;;-0.42;55.68;96795.75;5092018;28;20051;-79
2022/03/09 00:37:14;;;;;;;53.10;13.20;;;;;;;-0.48;55.74;96791.38;5075753;28;20055;-79
2022/03/09 00:39:41;;;;;;;42.53;11.85;;;;;;;-0.52;55.99;96796.41;5073823;28;20131;-77
2022/03/09 00:42:08;;;;;;;54.63;13.27;;;;;;;-0.57;56.13;96790.94;5072640;28;20518;-79
2022/03/09 00:44:35;;;;;;;38.00;11.25;;;;;;;-0.60;56.56;96796.75;5077911;28;20402;-79
2022/03/09 00:47:02;;;;;;;50.65;13.32;;;;;;;-0.64;57.42;96795.59;5092764;28;20052;-79
2022/03/09 00:49:28;;;;;;;40.25;11.43;;;;;;;-0.64;57.64;96787.56;5094487;28;20042;-77
2022/03/09 00:51:59;;;;;;;53.88;12.98;;;;;;;-0.64;57.35;96793.72;5090237;28;20063;-79
2022/03/09 00:54:25;;;;;;;47.40;11.98;;;;;;;-0.65;57.54;96791.28;5090477;28;20044;-79
2022/03/09 00:56:52;;;;;;;52.70;12.88;;;;;;;-0.63;57.25;96791.88;5090468;28;20046;-78
2022/03/09 00:59:18;;;;;;;56.45;13.07;;;;;;;-0.62;56.80;96788.16;5090192;28;20370;-79
2022/03/09 01:01:45;;;;;;;45.00;11.60;;;;;;;-0.63;57.06;96794.53;5089590;28;20063;-79
2022/03/09 01:04:12;;;;;;;59.08;14.05;;;;;;;-0.68;57.07;96789.09;5089969;28;20048;-80
2022/03/09 01:06:38;;;;;;;51.65;12.88;;;;;;;-0.67;56.90;96780.03;5090198;28;20052;-79
2022/03/09 01:09:06;;;;;;;51.97;12.75;;;;;;;-0.67;57.87;96791.53;5090472;28;20503;-77
2022/03/09 01:11:33;;;;;;;55.95;12.88;;;;;;;-0.72;57.49;96782.59;5091113;28;20055;-78
2022/03/09 01:13:59;;;;;;;61.95;13.00;;;;;;;-0.87;57.92;96791.91;5088382;28;20526;-76
2022/03/09 01:16:26;;;;;;;44.47;12.15;;;;;;;-1.03;58.12;96789.97;5088714;28;20050;-79
2022/03/09 01:18:55;;;;;;;53.70;13.00;;;;;;;-1.08;58.49;96790.66;5088639;28;20044;-79
2022/03/09 01:21:21;;;;;;;53.28;12.68;;;;;;;-1.24;59.19;96791.34;5089318;28;20057;-79
2022/03/09 01:23:48;;;;;;;41.05;13.35;;;;;;;-1.27;59.45;96796.34;5090245;28;20056;-77
2022/03/09 01:26:16;;;;;;;61.90;13.48;;;;;;;-1.22;59.12;96796.47;5095537;28;20075;-78
2022/03/09 01:28:43;;;;;;;42.08;12.63;;;;;;;-1.17;59.48;96793.91;5094385;28;20407;-79
2022/03/09 01:31:09;;;;;;;40.22;11.88;;;;;;;-1.16;60.02;96803.53;5094074;28;20048;-76
2022/03/09 01:33:36;;;;;;;50.58;12.85;;;;;;;-1.15;59.67;96799.81;5090858;28;20047;-78
2022/03/09 01:36:03;;;;;;;57.22;13.30;;;;;;;-1.14;59.32;96801.47;5088728;28;20048;-80
2022/03/09 01:38:29;;;;;;;45.72;12.13;;;;;;;-1.14;59.44;96799.59;5089715;28;20047;-77
2022/03/09 01:40:56;;;;;;;54.78;12.27;;;;;;;-1.21;58.87;96795.41;5089217;28;20051;-77
2022/03/09 01:43:24;;;;;;;55.67;12.93;;;;;;;-1.22;58.68;96793.78;5089988;28;20514;-76
2022/03/09 01:45:50;;;;;;;55.95;12.73;;;;;;;-1.18;59.48;96801.13;5087441;28;20044;-80
2022/03/09 01:48:17;;;;;;;57.50;14.23;;;;;;;-1.18;60.25;96794.97;5088983;28;20043;-78
2022/03/09 01:50:44;;;;;;;49.35;12.45;;;;;;;-1.17;60.25;96788.56;5088789;28;20588;-79
2022/03/09 01:53:11;;;;;;;73.47;13.15;;;;;;;-1.16;60.02;96796.34;5088683;28;20055;-79
2022/03/09 01:55:38;;;;;;;52.80;12.25;;;;;;;-1.14;59.89;96782.75;5088557;28;20044;-79
2022/03/09 01:58:05;;;;;;;59.13;12.63;;;;;;;-1.15;59.68;96781.97;5089671;28;20040;-79
2022/03/09 02:00:33;;;;;;;42.85;11.00;;;;;;;-1.15;59.86;96784.63;5090052;28;20055;-77
2022/03/09 02:02:59;;;;;;;69.65;13.27;;;;;;;-1.14;60.18;96785.44;5088758;28;20059;-80
2022/03/09 02:05:26;;;;;;;46.75;11.98;;;;;;;-1.14;60.03;96782.75;5088538;28;20044;-77
2022/03/09 02:10:38;;;;;;;42.75;11.70;;;;;;;-1.25;59.57;96783.56;5089347;28;20414;-78
2022/03/09 02:13:04;;;;;;;47.45;12.27;;;;;;;-1.25;59.50;96792.41;5087979;28;20056;-80
2022/03/09 02:15:32;;;;;;;46.17;11.90;;;;;;;-1.24;59.41;96790.53;5087736;28;20618;-79
2022/03/09 02:18:00;;;;;;;44.80;12.35;;;;;;;-1.22;59.71;96793.78;5088258;28;20048;-81
2022/03/09 02:20:26;;;;;;;53.30;12.15;;;;;;;-1.22;59.46;96785.78;5088543;28;20044;-79
2022/03/09 02:22:55;;;;;;;52.20;12.05;;;;;;;-1.25;59.39;96783.56;5090408;28;20059;-79
2022/03/09 02:25:22;;;;;;;43.95;12.02;;;;;;;-1.26;59.28;96781.94;5090428;28;20048;-79
2022/03/09 02:27:49;;;;;;;36.80;11.48;;;;;;;-1.27;59.59;96780.31;5093371;28;20048;-76
2022/03/09 02:30:17;;;;;;;51.83;12.27;;;;;;;-1.29;59.96;96783.22;5092692;28;20051;-78
2022/03/09 02:32:47;;;;;;;42.80;11.23;;;;;;;-1.34;60.27;96780.44;5091044;28;20055;-77
2022/03/09 02:35:15;;;;;;;42.22;10.82;;;;;;;-1.34;59.96;96778.56;5090667;28;20048;-75
2022/03/09 02:37:42;;;;;;;49.63;11.82;;;;;;;-1.34;60.21;96778.56;5089500;28;20402;-79
2022/03/09 02:40:14;;;;;;;38.83;10.60;;;;;;;-1.31;60.15;96774.59;5089060;28;20047;-79
2022/03/09 02:42:41;;;;;;;48.83;11.52;;;;;;;-1.28;59.92;96773.34;5093912;28;20499;-80
2022/03/09 02:45:08;;;;;;;35.75;10.35;;;;;;;-1.25;60.27;96775.53;5094291;28;20071;-78
2022/03/09 02:47:35;;;;;;;38.33;10.05;;;;;;;-1.25;60.43;96768.38;5094150;28;20052;-77
2022/03/09 02:50:02;;;;;;;53.85;10.98;;;;;;;-1.23;60.50;96768.13;5094220;28;20059;-78
2022/03/09 02:52:28;;;;;;;39.08;10.77;;;;;;;-1.21;60.54;96771.38;5093380;28;20046;-79
2022/03/09 02:54:55;;;;;;;59.22;11.15;;;;;;;-1.19;60.48;96777.31;5093271;28;20466;-77
2022/03/09 02:57:23;;;;;;;41.88;9.95;;;;;;;-1.19;59.80;96778.13;5092627;28;20069;-79
2022/03/09 02:59:50;;;;;;;46.70;10.98;;;;;;;-1.14;59.61;96785.44;5093778;28;20048;-76
2022/03/09 03:02:18;;;;;;;60.33;10.48;;;;;;;-1.15;59.56;96773.09;5092678;28;20074;-79
2022/03/09 03:04:44;;;;;;;55.28;10.75;;;;;;;-1.16;59.34;96780.31;5093791;28;20403;-77
2022/03/09 03:07:11;;;;;;;56.85;11.57;;;;;;;-1.16;59.48;96784.84;5093522;28;20044;-79
2022/03/09 03:09:39;;;;;;;50.63;10.80;;;;;;;-1.18;59.50;96784.28;5092642;28;20054;-77
2022/03/09 03:12:07;;;;;;;57.15;11.07;;;;;;;-1.18;59.85;96789.63;5092500;28;20048;-79
2022/03/09 03:14:35;;;;;;;42.30;10.65;;;;;;;-1.19;60.46;96788.00;5092319;28;20124;-77
2022/03/09 03:17:01;;;;;;;55.70;11.02;;;;;;;-1.23;60.58;96794.84;5093068;28;20062;-80
2022/03/09 03:19:28;;;;;;;53.47;10.73;;;;;;;-1.23;60.26;96803.66;5091349;28;20036;-80
2022/03/09 03:21:54;;;;;;;50.13;9.93;;;;;;;-1.24;60.00;96790.53;5093641;28;20055;-79
2022/03/09 03:24:21;;;;;;;51.25;9.70;;;;;;;-1.32;59.54;96797.84;5096227;28;20044;-77
2022/03/09 03:26:48;;;;;;;60.40;10.52;;;;;;;-1.30;59.36;96802.16;5097692;28;20044;-76
2022/03/09 03:29:14;;;;;;;44.45;10.48;;;;;;;-1.33;59.46;96809.59;5092577;28;20041;-77
2022/03/09 03:31:42;;;;;;;57.17;10.65;;;;;;;-1.35;59.43;96805.53;5093231;28;20562;-79
2022/03/09 03:34:08;;;;;;;54.75;11.55;;;;;;;-1.36;59.60;96810.06;5092407;28;20059;-78
2022/03/09 03:36:35;;;;;;;41.20;9.77;;;;;;;-1.36;59.86;96806.56;5092993;28;20047;-79
2022/03/09 03:39:02;;;;;;;53.13;10.77;;;;;;;-1.36;60.43;96814.56;5092881;28;20055;-79
2022/03/09 03:41:28;;;;;;;34.83;9.52;;;;;;;-1.39;60.36;96812.38;5094536;28;20046;-79
2022/03/09 03:43:55;;;;;;;64.10;11.07;;;;;;;-1.37;60.49;96829.78;5090584;28;20048;-79
2022/03/09 03:46:22;;;;;;;46.67;10.48;;;;;;;-1.35;59.97;96824.22;5090550;28;20593;-78
2022/03/09 03:48:50;;;;;;;63.63;10.48;;;;;;;-1.35;59.44;96816.22;5092291;28;20059;-77
2022/03/09 03:51:16;;;;;;;70.40;11.65;;;;;;;-1.40;59.40;96816.91;5089716;28;20054;-79
2022/03/09 03:53:43;;;;;;;46.03;10.23;;;;;;;-1.44;58.94;96828.28;5090659;28;20052;-76
2022/03/09 03:56:09;;;;;;;55.70;10.75;;;;;;;-1.51;59.35;96828.38;5092938;28;20046;-77
2022/03/09 03:58:36;;;;;;;71.32;11.25;;;;;;;-1.55;59.48;96831.75;5091852;28;20058;-77
2022/03/09 04:01:02;;;;;;;58.33;10.77;;;;;;;-1.59;59.68;96834.06;5090907;28;20466;-79
2022/03/09 04:03:29;;;;;;;56.40;10.98;;;;;;;-1.62;59.55;96827.31;5090582;28;20048;-76
2022/03/09 04:05:57;;;;;;;52.88;10.27;;;;;;;-1.64;60.01;96829.38;5091569;28;20059;-77
2022/03/09 04:08:23;;;;;;;42.67;10.07;;;;;;;-1.68;60.11;96828.22;5089837;28;20044;-77
2022/03/09 04:10:53;;;;;;;98.32;13.00;;;;;;;-1.69;60.01;96833.78;5089988;28;20541;-77
2022/03/09 04:13:20;;;;;;;58.58;11.57;;;;;;;-1.73;60.30;96832.63;5087888;28;20533;-77
2022/03/09 04:15:46;;;;;;;54.08;10.77;;;;;;;-1.76;60.61;96830.41;5089654;28;20390;-77
2022/03/09 04:18:13;;;;;;;57.97;12.13;;;;;;;-1.77;60.54;96842.16;5089303;28;20044;-78
2022/03/09 04:20:39;;;;;;;53.53;11.05;;;;;;;-1.80;60.79;96848.75;5089121;28;20044;-77
2022/03/09 04:23:09;;;;;;;60.10;11.30;;;;;;;-1.85;60.44;96859.28;5089476;28;20048;-76
2022/03/09 04:25:35;;;;;;;48.53;10.52;;;;;;;-1.98;60.49;96854.13;5089463;28;20048;-78
2022/03/09 04:28:02;;;;;;;47.10;10.10;;;;;;;-2.02;60.47;96866.31;5089956;28;20048;-80
2022/03/09 04:30:29;;;;;;;32.33;9.77;;;;;;;-2.08;60.75;96868.00;5088466;28;20072;-78
2022/03/09 04:32:56;;;;;;;59.05;11.85;;;;;;;-2.11;60.86;96879.13;5089413;28;20050;-77
2022/03/09 04:35:22;;;;;;;61.55;12.50;;;;;;;-2.13;60.93;96883.88;5087746;28;20048;-77
2022/03/09 04:37:49;;;;;;;63.72;12.43;;;;;;;-2.16;61.46;96878.97;5069219;28;20109;-77
2022/03/09 04:40:17;;;;;;;45.35;10.23;;;;;;;-2.18;61.82;96878.41;5068282;28;20140;-77
2022/03/09 04:42:44;;;;;;;61.63;12.05;;;;;;;-2.19;61.87;96880.25;5075933;28;20051;-78
2022/03/09 04:45:11;;;;;;;60.42;11.30;;;;;;;-2.16;62.10;96887.81;5088629;28;20048;-77
2022/03/09 04:47:37;;;;;;;50.72;10.90;;;;;;;-2.15;62.25;96896.63;5088740;28;20531;-77
2022/03/09 04:50:05;;;;;;;71.35;12.10;;;;;;;-2.16;62.84;96892.31;5088166;28;20547;-80
2022/03/09 04:52:31;;;;;;;29.75;9.80;;;;;;;-2.15;62.73;96897.44;5088193;28;20051;-81
2022/03/09 04:54:58;;;;;;;50.67;10.52;;;;;;;-2.13;62.65;96905.22;5088529;28;20044;-77
2022/03/09 04:57:26;;;;;;;37.40;10.15;;;;;;;-2.15;62.38;96902.75;5087876;28;20040;-77
2022/03/09 04:59:52;;;;;;;62.75;11.60;;;;;;;-2.14;62.28;96903.56;5088914;28;20056;-78
2022/03/09 05:02:19;;;;;;;56.13;10.90;;;;;;;-2.14;62.15;96903.56;5087952;28;20507;-78
2022/03/09 05:04:45;;;;;;;66.65;11.48;;;;;;;-2.13;62.21;96907.91;5088114;28;20079;-78
2022/03/09 05:07:12;;;;;;;71.70;12.10;;;;;;;-2.12;62.35;96898.84;5087337;28;20044;-77
2022/03/09 05:09:38;;;;;;;60.38;11.15;;;;;;;-2.15;62.09;96902.75;5088262;28;20058;-77
2022/03/09 05:12:06;;;;;;;59.72;12.00;;;;;;;-2.16;62.14;96892.31;5088407;28;20491;-77
2022/03/09 05:14:34;;;;;;;56.00;11.52;;;;;;;-2.19;62.09;96898.13;5086769;28;20066;-79
2022/03/09 05:17:00;;;;;;;46.55;10.85;;;;;;;-2.18;62.21;96891.75;5088938;28;20094;-76
2022/03/09 05:19:27;;;;;;;53.17;10.73;;;;;;;-2.19;62.41;96898.13;5088123;28;20480;-77
2022/03/09 05:21:53;;;;;;;57.75;11.32;;;;;;;-2.18;62.70;96902.41;5087570;28;20047;-79
2022/03/09 05:24:20;;;;;;;71.35;13.40;;;;;;;-2.20;62.87;96899.13;5086421;28;20501;-78
2022/03/09 05:26:47;;;;;;;60.97;13.07;;;;;;;-2.19;63.03;96898.13;5087706;28;20741;-78
2022/03/09 05:29:14;;;;;;;54.63;11.90;;;;;;;-2.18;63.01;96891.75;5087275;28;20044;-80
2022/03/09 05:31:44;;;;;;;48.67;12.88;;;;;;;-2.19;63.00;96885.59;5086290;28;20544;-81
2022/03/09 05:34:11;;;;;;;53.28;12.70;;;;;;;-2.18;63.07;96886.41;5064134;28;20044;-79
2022/03/09 05:36:38;;;;;;;56.22;12.48;;;;;;;-2.22;62.99;96877.22;5085742;28;20055;-79
2022/03/09 05:39:06;;;;;;;46.15;11.88;;;;;;;-2.22;63.08;96883.38;5086826;28;20047;-79
2022/03/09 05:41:34;;;;;;;44.10;12.07;;;;;;;-2.20;63.35;96888.47;5085819;28;20135;-77
2022/03/09 05:44:00;;;;;;;75.88;14.45;;;;;;;-2.19;63.47;96890.94;5087143;28;20062;-79
2022/03/09 05:46:27;;;;;;;65.00;13.00;;;;;;;-2.18;63.46;96891.75;5085614;28;20495;-79
2022/03/09 05:48:55;;;;;;;55.08;12.10;;;;;;;-2.19;63.47;96887.44;5087013;28;20050;-80
2022/03/09 05:51:21;;;;;;;48.58;11.23;;;;;;;-2.19;63.34;96887.44;5086718;28;20056;-79
2022/03/09 05:53:48;;;;;;;52.97;11.45;;;;;;;-2.18;63.49;96886.41;5087143;28;20056;-77
2022/03/09 05:56:14;;;;;;;44.53;11.27;;;;;;;-2.18;63.58;96887.22;5086617;28;20048;-79
2022/03/09 05:58:41;;;;;;;50.45;11.90;;;;;;;-2.17;63.35;96890.69;5086698;28;20059;-78
2022/03/09 06:01:09;;;;;;;36.42;10.85;;;;;;;-2.16;63.17;96895.00;5088530;28;20040;-78
2022/03/09 06:03:36;;;;;;;45.92;11.43;;;;;;;-2.14;63.44;96895.56;5089242;28;20052;-79
2022/03/09 06:06:04;;;;;;;38.05;10.27;;;;;;;-2.12;63.35;96896.19;5088629;28;20056;-80
2022/03/09 06:08:30;;;;;;;36.05;10.38;;;;;;;-2.08;62.94;96891.22;5088229;28;20428;-79
2022/03/09 06:10:57;;;;;;;44.33;11.65;;;;;;;-2.08;62.64;96894.69;5089035;28;20048;-81
2022/03/09 06:13:24;;;;;;;52.25;11.65;;;;;;;-2.06;62.71;96891.81;5087995;28;20044;-79
2022/03/09 06:15:50;;;;;;;56.10;12.13;;;;;;;-2.06;62.75;96891.81;5087852;28;20052;-80
2022/03/09 06:18:17;;;;;;;69.22;13.00;;;;;;;-2.01;62.93;96902.63;5087918;28;20414;-82
2022/03/09 06:20:44;;;;;;;46.00;11.50;;;;;;;-2.00;62.92;96896.22;5088338;28;20059;-78
2022/03/09 06:23:12;;;;;;;41.63;11.00;;;;;;;-1.96;62.75;96895.56;5090014;28;20756;-79
2022/03/09 06:25:39;;;;;;;36.13;10.90;;;;;;;-1.92;62.75;96894.06;5088571;28;20058;-78
2022/03/09 06:28:05;;;;;;;48.83;11.13;;;;;;;-1.88;62.58;96892.59;5094096;28;20051;-78
2022/03/09 06:30:32;;;;;;;42.92;12.02;;;;;;;-1.81;62.91;96907.69;5090570;28;20055;-78
2022/03/09 06:32:58;;;;;;;49.53;11.38;;;;;;;-1.76;63.28;96910.50;5088710;28;20048;-77
2022/03/09 06:35:26;;;;;;;41.80;10.65;;;;;;;-1.70;63.37;96915.75;5087167;28;20051;-77
2022/03/09 06:37:52;;;;;;;53.00;11.93;;;;;;;-1.65;63.16;96917.75;5087434;28;20075;-77
2022/03/09 06:40:21;;;;;;;43.10;11.23;;;;;;;-1.59;62.55;96909.63;5087745;28;20047;-78
2022/03/09 06:42:48;;;;;;;53.58;12.95;;;;;;;-1.49;62.38;96909.09;5086705;28;20101;-79
2022/03/09 06:45:14;;;;;;;46.42;10.60;;;;;;;-1.41;62.14;96908.78;5087821;28;20047;-77
2022/03/09 06:47:41;;;;;;;84.20;13.77;;;;;;;-1.32;62.10;96911.91;5087084;28;20084;-78
2022/03/09 06:50:10;;;;;;;83.78;13.35;;;;;;;-1.23;61.57;96909.75;5085329;28;20384;-78
2022/03/09 06:52:37;;;;;;;67.88;11.80;;;;;;;-1.13;61.53;96913.47;5083128;28;20052;-78
2022/03/09 06:55:04;;;;;;;70.75;11.88;;;;;;;-1.02;61.35;96916.41;5075962;28;20071;-78
2022/03/09 06:57:33;;;;;;;50.50;12.07;;;;;;;-0.97;60.62;96925.34;5084852;28;20054;-77
2022/03/09 07:00:00;;;;;;;61.92;11.75;;;;;;;-0.86;60.27;96924.53;5085329;28;20051;-78
2022/03/09 07:02:27;;;;;;;55.65;11.38;;;;;;;-0.76;60.44;96926.66;5085095;28;20048;-78
2022/03/09 07:04:54;;;;;;;74.82;12.48;;;;;;;-0.65;59.97;96928.50;5086158;28;20048;-78
2022/03/09 07:07:20;;;;;;;71.00;11.75;;;;;;;-0.55;59.80;96927.94;5086911;28;20048;-76
2022/03/09 07:09:47;;;;;;;84.13;11.98;;;;;;;-0.46;59.44;96934.56;5086069;28;20048;-76
2022/03/09 07:12:13;;;;;;;52.17;11.10;;;;;;;-0.30;59.17;96936.53;5082858;28;20048;-77
2022/03/09 07:14:42;;;;;;;61.83;11.95;;;;;;;-0.18;58.55;96938.38;5085330;28;20060;-78
2022/03/09 07:17:08;;;;;;;68.28;12.05;;;;;;;-0.05;57.49;96943.47;5085462;28;20044;-77
2022/03/09 07:19:35;;;;;;;65.78;11.40;;;;;;;0.10;57.03;96943.78;5085038;28;20052;-77
2022/03/09 07:22:01;;;;;;;77.63;12.02;;;;;;;0.27;57.07;96945.72;5085381;28;20056;-76
2022/03/09 07:24:28;;;;;;;62.33;11.23;;;;;;;0.65;56.70;96948.59;5083551;28;20048;-74
2022/03/09 07:26:56;;;;;;;72.35;11.50;;;;;;;1.20;55.17;96950.63;5090763;28;20754;-75
2022/03/09 07:29:22;;;;;;;45.03;10.63;;;;;;;1.81;51.98;96951.53;5089370;28;20055;-74
2022/03/09 07:31:50;;;;;;;76.75;11.52;;;;;;;2.40;49.92;96944.75;5068357;28;20048;-74
2022/03/09 07:34:17;;;;;;;44.30;9.85;;;;;;;3.03;48.25;96954.03;5088580;28;20135;-75
2022/03/09 07:36:43;;;;;;;45.92;9.75;;;;;;;3.55;45.62;96953.38;5088227;28;20052;-76
2022/03/09 07:39:10;;;;;;;23.58;8.32;;;;;;;3.72;45.74;96956.75;5090553;28;20055;-75
2022/03/09 07:41:37;;;;;;;33.90;8.98;;;;;;;3.64;45.32;96957.22;5091078;28;20071;-76
2022/03/09 07:44:03;;;;;;;35.67;9.13;;;;;;;3.53;44.91;96955.53;5095106;28;20052;-74
2022/03/09 07:46:30;;;;;;;40.17;10.75;;;;;;;3.89;43.88;96960.06;5094791;28;20048;-75
2022/03/09 07:48:58;;;;;;;34.25;9.95;;;;;;;4.59;42.60;96952.56;5096164;28;20047;-75
2022/03/09 07:51:24;;;;;;;30.58;8.77;;;;;;;5.35;40.68;96949.22;5095987;28;20479;-75
2022/03/09 07:53:51;;;;;;;28.17;9.23;;;;;;;6.13;39.53;96950.78;5093900;28;20557;-76
2022/03/09 07:56:17;;;;;;;21.45;7.78;;;;;;;6.75;37.45;96952.16;5091913;28;20407;-77
2022/03/09 07:58:44;;;;;;;27.95;8.70;;;;;;;7.23;36.77;96955.13;5092791;28;20048;-74
2022/03/09 08:01:10;;;;;;;23.10;8.10;;;;;;;7.63;35.39;96961.31;5090117;28;20056;-75
2022/03/09 08:03:39;;;;;;;27.90;8.15;;;;;;;8.21;34.60;96959.41;5094247;28;20055;-75
2022/03/09 08:06:07;;;;;;;32.65;9.27;;;;;;;8.52;34.11;96959.09;5095918;28;20079;-75
2022/03/09 08:08:33;;;;;;;28.35;9.13;;;;;;;9.10;34.68;96959.69;5094467;28;20054;-75
2022/03/09 08:11:00;;;;;;;28.85;9.18;;;;;;;9.55;32.69;96960.09;5091273;28;20064;-75
2022/03/09 08:13:26;;;;;;;24.55;8.63;;;;;;;9.87;34.19;96959.31;5091099;28;20059;-74
2022/03/09 08:15:53;;;;;;;33.13;9.88;;;;;;;9.85;32.54;96958.78;5090127;28;20612;-75
2022/03/09 08:18:19;;;;;;;18.67;7.43;;;;;;;10.40;32.46;96958.09;5090950;28;20051;-75
2022/03/09 08:20:46;;;;;;;27.30;8.95;;;;;;;10.93;30.42;96955.66;5093318;28;20059;-78
2022/03/09 08:23:14;;;;;;;22.85;8.73;;;;;;;11.46;29.96;96956.91;5093315;28;20040;-76
2022/03/09 08:25:40;;;;;;;19.02;8.65;;;;;;;11.95;30.87;96957.91;5088220;28;20463;-75
2022/03/09 08:28:07;;;;;;;20.42;8.55;;;;;;;12.37;29.92;96953.84;5089485;28;20048;-77
2022/03/09 08:30:35;;;;;;;19.15;8.63;;;;;;;12.58;28.99;96951.34;5088105;28;20055;-76
2022/03/09 08:33:01;;;;;;;22.38;9.43;;;;;;;12.86;27.76;96949.16;5088959;28;20056;-75
2022/03/09 08:35:28;;;;;;;21.30;10.00;;;;;;;13.18;27.71;96952.59;5087811;28;20039;-76
2022/03/09 08:37:54;;;;;;;19.52;8.50;;;;;;;13.31;27.84;96955.22;5088808;28;20060;-76
2022/03/09 08:40:22;;;;;;;16.45;8.40;;;;;;;13.35;27.60;96957.31;5088945;28;20044;-76
2022/03/09 08:42:48;;;;;;;26.00;10.55;;;;;;;13.25;27.56;96956.50;5087517;28;20095;-76
2022/03/09 08:45:15;;;;;;;19.80;8.52;;;;;;;13.24;26.53;96954.09;5075908;28;20053;-76
2022/03/09 08:47:42;;;;;;;25.95;10.43;;;;;;;13.37;27.13;96952.34;5068589;28;20052;-75
2022/03/09 08:50:10;;;;;;;21.38;8.77;;;;;;;13.36;28.08;96954.25;5085756;28;20064;-76
2022/03/09 08:52:36;;;;;;;20.70;9.20;;;;;;;13.29;27.15;96952.00;5087246;28;20531;-75
2022/03/09 08:55:04;;;;;;;29.77;9.50;;;;;;;13.18;26.88;96961.59;5087704;28;20075;-75
2022/03/09 08:57:32;;;;;;;23.83;9.35;;;;;;;12.91;27.24;96950.94;5087829;28;20151;-75
2022/03/09 09:00:02;;;;;;;32.38;10.93;;;;;;;12.84;27.92;96961.53;5087850;28;20158;-76
2022/03/09 09:02:28;;;;;;;23.50;9.25;;;;;;;13.05;27.79;96955.16;5081463;28;20119;-77
2022/03/09 09:04:55;;;;;;;38.38;11.70;;;;;;;12.98;27.36;96952.09;5085617;28;20044;-76
2022/03/09 09:07:21;;;;;;;26.15;8.55;;;;;;;12.84;27.60;96951.41;5086952;28;20059;-74
2022/03/09 09:09:48;;;;;;;24.98;8.98;;;;;;;12.76;27.38;96954.94;5088189;28;20506;-75
2022/03/09 09:12:15;;;;;;;28.83;9.30;;;;;;;12.62;28.13;96955.03;5087831;28;20055;-76
2022/03/09 09:14:43;;;;;;;28.95;9.02;;;;;;;12.61;27.05;96964.34;5086827;28;20131;-76
2022/03/09 09:17:09;;;;;;;24.58;8.48;;;;;;;12.33;26.82;96962.97;5087758;28;20052;-75
2022/03/09 09:19:36;;;;;;;24.58;8.25;;;;;;;12.14;26.93;96955.00;5087118;28;20056;-75
2022/03/09 09:22:04;;;;;;;29.83;9.95;;;;;;;11.96;28.29;96956.81;5087232;28;20052;-76
2022/03/09 09:24:30;;;;;;;25.13;7.95;;;;;;;11.84;28.16;96951.13;5086499;28;20499;-75
2022/03/09 09:26:57;;;;;;;29.70;8.73;;;;;;;11.74;28.26;96952.97;5087663;28;20056;-75
2022/03/09 09:29:24;;;;;;;23.73;7.72;;;;;;;11.79;27.79;96951.22;5087321;28;20050;-75
2022/03/09 09:31:52;;;;;;;31.25;9.18;;;;;;;11.88;27.38;96954.84;5086542;28;20048;-75
2022/03/09 09:34:19;;;;;;;20.80;7.88;;;;;;;11.84;27.63;96951.91;5087133;28;20054;-76
2022/03/09 09:36:46;;;;;;;28.90;8.73;;;;;;;11.88;27.48;96946.66;5086450;28;20642;-76
2022/03/09 09:39:14;;;;;;;22.63;7.78;;;;;;;11.90;26.81;96949.88;5087645;28;20134;-76
2022/03/09 09:41:42;;;;;;;26.17;8.63;;;;;;;11.95;28.15;96953.28;5087490;28;20047;-76
2022/03/09 09:44:11;;;;;;;23.13;8.13;;;;;;;12.18;28.59;96955.97;5090438;28;20052;-75
2022/03/09 09:46:40;;;;;;;19.65;7.55;;;;;;;12.46;27.64;96951.13;5089324;28;20090;-75
2022/03/09 09:49:09;;;;;;;21.00;7.90;;;;;;;12.60;26.39;96943.63;5088688;28;20113;-75
2022/03/09 09:51:37;;;;;;;17.67;7.05;;;;;;;12.70;27.15;96946.06;5088871;28;20063;-77
2022/03/09 09:54:05;;;;;;;21.25;7.88;;;;;;;12.80;26.46;96947.72;5086801;28;20044;-76
2022/03/09 09:56:36;;;;;;;18.90;6.97;;;;;;;12.92;24.88;96941.63;5089275;28;20062;-76
2022/03/09 09:59:02;;;;;;;21.27;7.78;;;;;;;13.06;24.25;96936.84;5086533;28;20054;-76
2022/03/09 10:01:30;;;;;;;25.02;7.60;;;;;;;13.30;24.86;96941.84;5088430;28;20044;-76
2022/03/09 10:03:56;;;;;;;23.15;7.35;;;;;;;13.50;23.70;96941.22;5087916;28;20059;-75
2022/03/09 10:06:26;;;;;;;19.00;7.07;;;;;;;13.61;23.92;96941.69;5088455;28;20060;-76
2022/03/09 10:09:05;;;;;;;21.25;7.88;;;;;;;13.77;24.73;96945.53;5089334;28;20666;-74
2022/03/09 10:11:48;;;;;;;23.10;7.63;;;;;;;13.81;23.14;96946.50;5088346;28;20167;-75
2022/03/09 10:14:16;;;;;;;28.00;8.68;;;;;;;13.41;24.40;96947.81;5088190;28;20062;-76
2022/03/09 10:17:10;;;;;;;22.40;7.13;;;;;;;13.54;25.90;96935.91;5086289;28;20060;-77
2022/03/09 10:19:39;;;;;;;29.55;8.95;;;;;;;13.39;23.53;96939.13;5050998;28;20048;-76
2022/03/09 10:22:25;;;;;;;18.05;6.22;;;;;;;13.26;24.20;96935.44;5085474;28;20052;-76
2022/03/09 10:24:52;;;;;;;28.67;8.18;;;;;;;13.16;24.26;96936.53;5094217;28;20048;-75
2022/03/09 10:27:34;;;;;;;17.83;6.38;;;;;;;12.99;25.33;96937.28;5087396;28;20459;-75
2022/03/09 10:30:01;;;;;;;23.77;7.70;;;;;;;12.90;25.97;96938.41;5076013;28;20071;-76
2022/03/09 10:32:43;;;;;;;22.17;7.75;;;;;;;12.88;24.99;96937.91;5099642;28;20044;-75
2022/03/09 10:35:09;;;;;;;21.38;7.68;;;;;;;12.79;24.39;96938.72;5089131;28;20055;-76
2022/03/09 10:37:40;;;;;;;20.73;7.60;;;;;;;12.71;25.78;96946.88;5089816;28;20139;-76
2022/03/09 10:40:10;;;;;;;20.83;7.55;;;;;;;12.57;24.63;96941.50;5088215;28;20048;-76
2022/03/09 10:42:37;;;;;;;25.20;7.75;;;;;;;12.35;25.09;96947.88;5089161;28;20604;-76
2022/03/09 10:45:07;;;;;;;20.50;7.25;;;;;;;12.21;25.94;96950.69;5086484;28;20060;-76
2022/03/09 10:47:35;;;;;;;24.83;7.93;;;;;;;12.02;25.30;96941.94;5087560;28;20056;-75
2022/03/09 10:50:14;;;;;;;20.10;7.30;;;;;;;11.88;25.55;96935.72;5086467;28;20048;-76
2022/03/09 10:52:51;;;;;;;24.77;8.38;;;;;;;11.82;26.51;96942.44;5087123;28;20097;-78
2022/03/09 10:55:26;;;;;;;20.27;8.13;;;;;;;11.74;25.71;96933.88;5087746;28;20562;-77
2022/03/09 10:57:53;;;;;;;18.90;6.75;;;;;;;11.82;27.09;96931.53;5088810;28;20132;-77
2022/03/09 11:00:58;;;;;;;20.65;7.30;;;;;;;11.85;26.47;96926.25;5088020;28;20622;-77
2022/03/09 11:03:28;;;;;;;24.08;7.45;;;;;;;11.85;26.78;96933.63;5090226;28;20044;-78
2022/03/09 11:05:56;;;;;;;26.88;8.55;;;;;;;11.91;27.07;96925.00;5091589;28;20052;-77
2022/03/09 11:08:26;;;;;;;22.38;7.63;;;;;;;11.93;26.70;96922.75;5092096;28;20078;-79
2022/03/09 11:10:53;;;;;;;20.58;7.60;;;;;;;11.91;26.43;96924.22;5091361;28;20051;-76
2022/03/09 11:13:20;;;;;;;25.00;8.32;;;;;;;11.98;26.91;96921.84;5088688;28;20052;-76
2022/03/09 11:15:50;;;;;;;29.92;8.68;;;;;;;11.94;26.78;96927.09;5089763;28;20044;-75
2022/03/09 11:18:19;;;;;;;24.15;7.97;;;;;;;11.91;26.88;96926.94;5088485;28;20406;-75
2022/03/09 11:20:46;;;;;;;23.08;7.78;;;;;;;11.74;26.89;96919.41;5089841;28;20418;-75
2022/03/09 11:23:14;;;;;;;23.58;7.93;;;;;;;11.69;26.52;96923.09;5088543;28;20067;-75
2022/03/09 11:25:51;;;;;;;22.35;8.18;;;;;;;11.22;27.37;96919.84;5090471;28;20071;-75